Time;durP1;ratioP1;P1;durP2;ratioP2;P2;SDS_P1;SDS_P2;PMS_P1;PMS_P2;Temp;Humidity;BMP_temperature;BMP_pressure;BME280_temperature;BME280_humidity;BME280_pressure;Samples;Min_cycle;Max_cycle;Signal;HPM_P1;HPM_P2
2022/07/04 00:00:01;;;;;;;15.80;12.57;;;;;;;;;;5051881;28;20501;-62
2022/07/04 00:02:28;;;;;;;21.65;12.75;;;;;;;;;;5051442;28;20078;-62
2022/07/04 00:04:54;;;;;;;18.00;11.65;;;;;;;;;;5051568;28;20037;-70
2022/07/04 00:07:20;;;;;;;16.85;11.88;;;;;;;;;;5050964;28;20025;-72
2022/07/04 00:09:46;;;;;;;17.40;12.38;;;;;;;;;;5051179;28;20033;-62
2022/07/04 00:12:12;;;;;;;20.52;12.93;;;;;;;;;;5051337;28;20029;-61
2022/07/04 00:14:38;;;;;;;17.73;12.90;;;;;;;;;;5051379;28;20029;-61
2022/07/04 00:17:04;;;;;;;19.98;12.98;;;;;;;;;;5051204;28;20025;-62
2022/07/04 00:19:30;;;;;;;20.38;13.25;;;;;;;;;;5051314;28;20025;-62
2022/07/04 00:21:56;;;;;;;18.00;12.40;;;;;;;;;;5050935;28;20032;-70
2022/07/04 00:24:22;;;;;;;18.40;12.65;;;;;;;;;;5051084;28;20036;-63
2022/07/04 00:26:48;;;;;;;21.83;13.02;;;;;;;;;;5051402;28;20083;-62
2022/07/04 00:29:14;;;;;;;18.58;13.60;;;;;;;;;;5050883;28;20080;-62
2022/07/04 00:31:41;;;;;;;20.48;13.38;;;;;;;;;;5051040;28;20025;-63
2022/07/04 00:34:07;;;;;;;17.05;12.93;;;;;;;;;;5050833;28;20103;-61
2022/07/04 00:36:33;;;;;;;21.52;13.13;;;;;;;;;;5050985;28;20107;-61
2022/07/04 00:38:59;;;;;;;17.85;12.65;;;;;;;;;;5051112;28;20029;-61
2022/07/04 00:41:26;;;;;;;20.05;13.75;;;;;;;;;;5050701;28;20059;-62
2022/07/04 00:44:02;;;;;;;22.48;13.05;;;;;;;;;;5051191;28;20060;-67
2022/07/04 00:46:28;;;;;;;20.20;13.50;;;;;;;;;;5050931;28;20029;-62
2022/07/04 00:48:54;;;;;;;20.52;12.85;;;;;;;;;;5050863;28;20050;-61
2022/07/04 00:51:20;;;;;;;20.25;14.43;;;;;;;;;;5050881;28;20124;-62
2022/07/04 00:53:47;;;;;;;21.33;15.13;;;;;;;;;;5050591;28;20271;-62
2022/07/04 00:56:13;;;;;;;19.80;13.52;;;;;;;;;;5050962;28;20405;-62
2022/07/04 00:58:39;;;;;;;18.38;14.18;;;;;;;;;;5050491;28;20033;-62
2022/07/04 01:01:05;;;;;;;24.15;14.30;;;;;;;;;;5050559;28;20499;-61
2022/07/04 01:03:31;;;;;;;29.85;18.67;;;;;;;;;;5050390;28;20025;-63
2022/07/04 01:05:59;;;;;;;23.85;15.20;;;;;;;;;;5050944;28;20029;-61
2022/07/04 01:08:25;;;;;;;19.88;14.90;;;;;;;;;;5050574;28;20033;-62
2022/07/04 01:10:51;;;;;;;21.92;13.75;;;;;;;;;;5050611;28;20032;-61
2022/07/04 01:13:21;;;;;;;22.88;16.83;;;;;;;;;;5050487;28;20022;-62
2022/07/04 01:15:47;;;;;;;21.85;14.50;;;;;;;;;;5070545;28;20080;-61
2022/07/04 01:18:13;;;;;;;19.95;13.32;;;;;;;;;;5070619;28;20028;-61
2022/07/04 01:20:39;;;;;;;17.55;13.63;;;;;;;;;;5070575;28;20042;-62
2022/07/04 01:23:05;;;;;;;18.52;13.68;;;;;;;;;;5070366;28;20112;-62
2022/07/04 01:25:32;;;;;;;19.17;13.93;;;;;;;;;;5070268;28;20059;-61
2022/07/04 01:28:01;;;;;;;19.27;13.18;;;;;;;;;;5069966;28;20044;-61
2022/07/04 01:30:28;;;;;;;20.48;14.20;;;;;;;;;;5070326;28;20121;-62
2022/07/04 01:32:54;;;;;;;20.65;13.52;;;;;;;;;;5069982;28;20025;-62
2022/07/04 01:35:20;;;;;;;19.13;13.93;;;;;;;;;;5070566;28;20103;-62
2022/07/04 01:37:46;;;;;;;20.77;13.27;;;;;;;;;;5069919;28;20021;-62
2022/07/04 01:40:13;;;;;;;16.65;12.75;;;;;;;;;;5069877;28;20043;-62
2022/07/04 01:42:43;;;;;;;21.15;13.73;;;;;;;;;;5070124;28;20116;-62
2022/07/04 01:45:09;;;;;;;18.55;13.23;;;;;;;;;;5070268;28;20036;-62
2022/07/04 01:47:36;;;;;;;19.92;13.90;;;;;;;;;;5073119;28;20028;-62
2022/07/04 01:50:03;;;;;;;17.30;13.68;;;;;;;;;;5074352;28;20063;-62
2022/07/04 01:52:29;;;;;;;18.75;13.25;;;;;;;;;;5074420;28;20467;-62
2022/07/04 01:54:55;;;;;;;19.17;13.32;;;;;;;;;;5074026;28;20032;-66
2022/07/04 01:57:21;;;;;;;21.15;14.05;;;;;;;;;;5073940;28;20036;-65
2022/07/04 02:02:32;;;;;;;23.88;13.80;;;;;;;;;;5075495;28;20047;-66
2022/07/04 02:04:58;;;;;;;18.15;14.30;;;;;;;;;;5074875;28;20036;-65
2022/07/04 02:07:24;;;;;;;20.90;13.48;;;;;;;;;;5073750;28;20051;-65
2022/07/04 02:09:50;;;;;;;19.90;14.13;;;;;;;;;;5073406;28;20742;-65
2022/07/04 02:15:00;;;;;;;19.50;13.85;;;;;;;;;;5074171;28;20052;-65
2022/07/04 02:17:26;;;;;;;16.77;12.27;;;;;;;;;;5073656;28;20077;-65
2022/07/04 02:19:53;;;;;;;22.55;13.25;;;;;;;;;;5073656;28;20040;-66
2022/07/04 02:22:19;;;;;;;14.90;12.30;;;;;;;;;;5073408;28;20024;-66
2022/07/04 02:24:45;;;;;;;22.13;13.57;;;;;;;;;;5073237;28;20036;-66
2022/07/04 02:27:11;;;;;;;22.27;12.90;;;;;;;;;;5072984;28;20077;-66
2022/07/04 02:29:37;;;;;;;16.00;12.48;;;;;;;;;;5073566;28;20085;-66
2022/07/04 02:32:03;;;;;;;15.35;11.75;;;;;;;;;;5073191;28;20468;-67
2022/07/04 02:34:30;;;;;;;17.92;12.30;;;;;;;;;;5073329;28;20025;-66
2022/07/04 02:36:56;;;;;;;16.27;11.32;;;;;;;;;;5073187;28;20029;-66
2022/07/04 02:39:22;;;;;;;18.27;11.82;;;;;;;;;;5072988;28;20472;-66
2022/07/04 02:41:48;;;;;;;16.45;12.10;;;;;;;;;;5073200;28;20444;-66
2022/07/04 02:44:14;;;;;;;17.63;12.57;;;;;;;;;;5073626;28;20089;-66
2022/07/04 02:46:40;;;;;;;18.50;11.27;;;;;;;;;;5073215;28;20050;-66
2022/07/04 02:49:06;;;;;;;13.10;11.00;;;;;;;;;;5073546;28;20020;-64
2022/07/04 02:51:32;;;;;;;17.17;11.60;;;;;;;;;;5073062;28;20027;-73
2022/07/04 02:53:58;;;;;;;16.70;11.40;;;;;;;;;;5072569;28;20017;-65
2022/07/04 02:56:24;;;;;;;17.40;11.88;;;;;;;;;;5054597;28;20392;-64
2022/07/04 02:58:50;;;;;;;14.35;12.27;;;;;;;;;;5072902;28;20043;-65
2022/07/04 03:01:18;;;;;;;18.88;12.50;;;;;;;;;;5072412;28;20131;-65
2022/07/04 03:03:44;;;;;;;17.38;12.15;;;;;;;;;;5072906;28;20362;-65
2022/07/04 03:06:10;;;;;;;17.88;12.18;;;;;;;;;;5072161;28;20555;-65
2022/07/04 03:08:37;;;;;;;15.02;11.80;;;;;;;;;;5072683;28;20415;-66
2022/07/04 03:11:03;;;;;;;16.20;11.68;;;;;;;;;;5072808;28;20048;-66
2022/07/04 03:13:29;;;;;;;15.73;11.35;;;;;;;;;;5072768;28;20024;-66
2022/07/04 03:15:55;;;;;;;16.20;12.13;;;;;;;;;;5072300;28;20052;-66
2022/07/04 03:18:21;;;;;;;19.25;13.25;;;;;;;;;;5072733;28;20028;-68
2022/07/04 03:20:47;;;;;;;14.45;11.82;;;;;;;;;;5072225;28;20037;-66
2022/07/04 03:23:14;;;;;;;21.48;13.13;;;;;;;;;;5072376;28;20028;-68
2022/07/04 03:25:40;;;;;;;21.38;13.98;;;;;;;;;;5072131;28;20029;-66
2022/07/04 03:28:07;;;;;;;24.27;13.05;;;;;;;;;;5071995;28;20064;-66
2022/07/04 03:30:33;;;;;;;21.92;14.05;;;;;;;;;;5072385;28;20025;-66
2022/07/04 03:32:59;;;;;;;16.88;11.13;;;;;;;;;;5071639;28;20019;-66
2022/07/04 03:35:26;;;;;;;20.20;12.23;;;;;;;;;;5072589;28;20527;-67
2022/07/04 03:37:52;;;;;;;23.05;13.55;;;;;;;;;;5071961;28;20028;-65
2022/07/04 03:40:21;;;;;;;16.73;11.43;;;;;;;;;;5072278;28;20039;-66
2022/07/04 03:42:47;;;;;;;16.05;11.68;;;;;;;;;;5072114;28;20086;-66
2022/07/04 03:45:14;;;;;;;17.20;10.50;;;;;;;;;;5072209;28;20024;-66
2022/07/04 03:47:40;;;;;;;20.38;11.15;;;;;;;;;;5072349;28;20438;-72
2022/07/04 03:50:06;;;;;;;16.10;11.00;;;;;;;;;;5072012;28;20050;-75
2022/07/04 03:52:32;;;;;;;19.40;10.93;;;;;;;;;;5072024;28;20461;-66
2022/07/04 03:54:58;;;;;;;13.63;10.15;;;;;;;;;;5071897;28;20024;-67
2022/07/04 03:57:24;;;;;;;21.77;11.55;;;;;;;;;;5053686;28;20031;-66
2022/07/04 03:59:50;;;;;;;15.85;10.75;;;;;;;;;;5071818;28;20387;-66
2022/07/04 04:02:16;;;;;;;14.18;11.23;;;;;;;;;;5071511;28;20505;-74
2022/07/04 04:07:27;;;;;;;16.65;11.30;;;;;;;;;;5071467;28;20035;-66
2022/07/04 04:09:53;;;;;;;19.17;11.82;;;;;;;;;;5071001;28;20028;-65
2022/07/04 04:12:19;;;;;;;18.88;11.40;;;;;;;;;;5071776;28;20028;-75
2022/07/04 04:14:45;;;;;;;17.52;11.23;;;;;;;;;;5071637;28;20434;-66
2022/07/04 04:17:11;;;;;;;15.48;10.60;;;;;;;;;;5071307;28;20118;-66
2022/07/04 04:19:37;;;;;;;19.05;11.15;;;;;;;;;;5071258;28;20740;-66
2022/07/04 04:22:04;;;;;;;16.35;10.80;;;;;;;;;;5071065;28;20480;-69
2022/07/04 04:24:31;;;;;;;13.40;10.25;;;;;;;;;;5071019;28;20550;-76
2022/07/04 04:26:57;;;;;;;13.48;10.38;;;;;;;;;;5070827;28;20036;-66
2022/07/04 04:29:23;;;;;;;18.13;10.40;;;;;;;;;;5070800;28;20049;-66
2022/07/04 04:31:49;;;;;;;13.65;10.00;;;;;;;;;;5070811;28;20138;-67
2022/07/04 04:34:15;;;;;;;17.10;11.05;;;;;;;;;;5070907;28;20531;-67
2022/07/04 04:36:41;;;;;;;15.27;10.00;;;;;;;;;;5070876;28;20110;-67
2022/07/04 04:39:07;;;;;;;16.05;9.82;;;;;;;;;;5070723;28;20496;-71
2022/07/04 04:41:33;;;;;;;14.63;10.82;;;;;;;;;;5071050;28;20040;-67
2022/07/04 04:43:59;;;;;;;18.17;10.23;;;;;;;;;;5070753;28;20476;-67
2022/07/04 04:46:25;;;;;;;17.40;10.45;;;;;;;;;;5070500;28;20033;-67
2022/07/04 04:48:51;;;;;;;13.00;10.10;;;;;;;;;;5070468;28;20024;-67
2022/07/04 04:51:17;;;;;;;15.68;10.45;;;;;;;;;;5070756;28;20040;-70
2022/07/04 04:53:43;;;;;;;12.90;9.98;;;;;;;;;;5070813;28;20035;-66
2022/07/04 04:56:09;;;;;;;14.07;11.20;;;;;;;;;;5070648;28;20032;-66
2022/07/04 04:58:35;;;;;;;16.58;10.20;;;;;;;;;;5070529;28;20479;-66
2022/07/04 05:01:02;;;;;;;13.55;9.57;;;;;;;;;;5052484;28;20431;-66
2022/07/04 05:03:28;;;;;;;13.23;9.82;;;;;;;;;;5070394;28;20024;-68
2022/07/04 05:05:54;;;;;;;14.15;9.27;;;;;;;;;;5070220;28;20062;-65
2022/07/04 05:08:21;;;;;;;18.02;8.70;;;;;;;;;;5070431;28;20451;-66
2022/07/04 05:10:47;;;;;;;16.75;9.70;;;;;;;;;;5070765;28;20056;-68
2022/07/04 05:13:13;;;;;;;11.38;9.05;;;;;;;;;;5070443;28;20052;-71
2022/07/04 05:15:39;;;;;;;16.42;8.95;;;;;;;;;;5070333;28;20024;-64
2022/07/04 05:18:05;;;;;;;16.38;10.02;;;;;;;;;;5070559;28;20492;-75
2022/07/04 05:20:32;;;;;;;16.48;9.50;;;;;;;;;;5070672;28;20124;-65
2022/07/04 05:22:58;;;;;;;14.40;9.70;;;;;;;;;;5074325;28;20052;-72
2022/07/04 05:25:25;;;;;;;12.43;9.48;;;;;;;;;;5074805;28;20028;-63
2022/07/04 05:27:51;;;;;;;16.55;9.20;;;;;;;;;;5074447;28;20036;-63
2022/07/04 05:30:17;;;;;;;14.60;9.13;;;;;;;;;;5074855;28;20039;-64
2022/07/04 05:32:43;;;;;;;16.20;9.95;;;;;;;;;;5074165;28;20024;-63
2022/07/04 05:35:09;;;;;;;27.13;10.52;;;;;;;;;;5074265;28;20036;-61
2022/07/04 05:37:35;;;;;;;24.05;10.07;;;;;;;;;;5074065;28;20021;-61
2022/07/04 05:40:03;;;;;;;25.30;10.80;;;;;;;;;;5073970;28;20047;-62
2022/07/04 05:42:29;;;;;;;20.52;9.73;;;;;;;;;;5074014;28;20054;-61
2022/07/04 05:44:55;;;;;;;16.58;9.40;;;;;;;;;;5074234;28;20373;-61
2022/07/04 05:47:24;;;;;;;19.17;9.35;;;;;;;;;;5074326;28;20035;-61
2022/07/04 05:49:51;;;;;;;17.85;9.43;;;;;;;;;;5073959;28;20032;-61
2022/07/04 05:52:17;;;;;;;13.10;9.07;;;;;;;;;;5073909;28;20264;-62
2022/07/04 05:54:43;;;;;;;13.98;9.15;;;;;;;;;;5074029;28;20099;-61
2022/07/04 05:57:09;;;;;;;16.35;9.40;;;;;;;;;;5073678;28;20082;-61
2022/07/04 05:59:35;;;;;;;18.15;9.23;;;;;;;;;;5073914;28;20353;-61
2022/07/04 06:02:01;;;;;;;18.52;9.52;;;;;;;;;;5073890;28;20162;-61
2022/07/04 06:04:27;;;;;;;17.58;9.40;;;;;;;;;;5073871;28;20036;-62
2022/07/04 06:06:53;;;;;;;17.15;9.00;;;;;;;;;;5073910;28;20108;-61
2022/07/04 06:09:19;;;;;;;15.77;9.30;;;;;;;;;;5074138;28;20118;-62
2022/07/04 06:11:45;;;;;;;18.05;9.38;;;;;;;;;;5073904;28;20036;-61
2022/07/04 06:14:11;;;;;;;14.48;9.35;;;;;;;;;;5073799;28;20029;-60
2022/07/04 06:16:38;;;;;;;16.90;9.40;;;;;;;;;;5074003;28;20028;-61
2022/07/04 06:19:04;;;;;;;14.43;9.57;;;;;;;;;;5073941;28;20036;-61
2022/07/04 06:21:30;;;;;;;20.00;9.00;;;;;;;;;;5073637;28;20090;-62
2022/07/04 06:23:58;;;;;;;11.63;8.80;;;;;;;;;;5073795;28;20029;-61
2022/07/04 06:26:24;;;;;;;16.65;8.68;;;;;;;;;;5073542;28;20021;-73
2022/07/04 06:28:50;;;;;;;13.15;8.45;;;;;;;;;;5073100;28;20049;-61
2022/07/04 06:31:16;;;;;;;12.05;9.02;;;;;;;;;;5073332;28;20030;-61
2022/07/04 06:36:27;;;;;;;15.48;9.70;;;;;;;;;;5073631;28;20090;-72
2022/07/04 06:38:53;;;;;;;13.50;8.45;;;;;;;;;;5073170;28;20064;-61
2022/07/04 06:41:19;;;;;;;21.85;10.88;;;;;;;;;;5073748;28;20033;-62
2022/07/04 06:43:45;;;;;;;16.75;10.02;;;;;;;;;;5073254;28;20036;-79
2022/07/04 06:46:11;;;;;;;14.25;9.55;;;;;;;;;;5072929;28;20094;-62
2022/07/04 06:48:38;;;;;;;13.73;8.95;;;;;;;;;;5073270;28;20543;-61
2022/07/04 06:51:04;;;;;;;19.08;9.35;;;;;;;;;;5073189;28;20039;-76
2022/07/04 06:53:30;;;;;;;12.23;7.85;;;;;;;;;;5072783;28;20056;-61
2022/07/04 06:55:56;;;;;;;14.73;8.27;;;;;;;;;;5072607;28;20032;-62
2022/07/04 06:58:22;;;;;;;14.18;8.13;;;;;;;;;;5072423;28;20108;-62
2022/07/04 07:00:48;;;;;;;13.77;7.95;;;;;;;;;;5072825;28;20036;-62
2022/07/04 07:03:14;;;;;;;17.50;8.40;;;;;;;;;;5072459;28;20035;-62
2022/07/04 07:05:40;;;;;;;13.10;7.97;;;;;;;;;;5072600;28;20028;-78
2022/07/04 07:08:07;;;;;;;16.10;8.10;;;;;;;;;;5072375;28;20040;-61
2022/07/04 07:10:33;;;;;;;14.73;7.60;;;;;;;;;;5072698;28;20029;-63
2022/07/04 07:12:59;;;;;;;13.77;7.97;;;;;;;;;;5072434;28;20031;-70
2022/07/04 07:15:25;;;;;;;13.55;8.00;;;;;;;;;;5072543;28;20103;-60
2022/07/04 07:17:51;;;;;;;17.10;8.32;;;;;;;;;;5072181;28;20036;-62
2022/07/04 07:20:17;;;;;;;12.52;8.40;;;;;;;;;;5072329;28;20044;-60
2022/07/04 07:22:44;;;;;;;12.15;8.35;;;;;;;;;;5072921;28;20472;-61
2022/07/04 07:25:11;;;;;;;14.50;8.52;;;;;;;;;;5072375;28;20427;-62
2022/07/04 07:27:37;;;;;;;20.23;9.07;;;;;;;;;;5072393;28;20388;-61
2022/07/04 07:30:04;;;;;;;16.48;8.82;;;;;;;;;;5072930;28;20039;-62
2022/07/04 07:32:30;;;;;;;15.25;8.90;;;;;;;;;;5072759;28;20028;-62
2022/07/04 07:34:56;;;;;;;16.92;8.88;;;;;;;;;;5072858;28;20035;-69
2022/07/04 07:37:22;;;;;;;14.07;8.55;;;;;;;;;;5072613;28;20024;-67
2022/07/04 07:39:49;;;;;;;15.45;8.77;;;;;;;;;;5071891;28;20086;-60
2022/07/04 07:42:15;;;;;;;12.32;8.25;;;;;;;;;;5071870;28;20036;-61
2022/07/04 07:44:41;;;;;;;17.08;8.43;;;;;;;;;;5071320;28;20063;-61
2022/07/04 07:47:07;;;;;;;17.70;9.07;;;;;;;;;;5051519;28;20044;-69
2022/07/04 07:49:33;;;;;;;19.70;8.90;;;;;;;;;;5072416;28;20043;-60
2022/07/04 07:51:59;;;;;;;18.80;9.05;;;;;;;;;;5072591;28;20032;-61
2022/07/04 07:54:25;;;;;;;19.13;8.82;;;;;;;;;;5072272;28;20037;-61
2022/07/04 07:56:51;;;;;;;26.67;9.60;;;;;;;;;;5072156;28;20038;-61
2022/07/04 07:59:18;;;;;;;17.67;8.55;;;;;;;;;;5072140;28;20128;-60
2022/07/04 08:01:44;;;;;;;24.20;9.38;;;;;;;;;;5071819;28;20099;-63
2022/07/04 08:06:54;;;;;;;20.70;8.88;;;;;;;;;;5071824;28;20047;-67
2022/07/04 08:09:20;;;;;;;21.45;9.57;;;;;;;;;;5071704;28;20024;-68
2022/07/04 08:11:47;;;;;;;31.40;10.15;;;;;;;;;;5071783;28;20043;-60
2022/07/04 08:14:13;;;;;;;37.83;10.10;;;;;;;;;;5071908;28;20460;-71
2022/07/04 08:16:40;;;;;;;20.65;8.65;;;;;;;;;;5071727;28;20054;-66
2022/07/04 08:19:06;;;;;;;27.00;9.80;;;;;;;;;;5071449;28;20024;-65
2022/07/04 08:21:32;;;;;;;26.98;9.18;;;;;;;;;;5071545;28;20032;-67
2022/07/04 08:23:58;;;;;;;19.92;8.80;;;;;;;;;;5071378;28;20107;-60
2022/07/04 08:26:25;;;;;;;21.55;9.18;;;;;;;;;;5071365;28;20024;-61
2022/07/04 08:28:51;;;;;;;15.15;8.80;;;;;;;;;;5071068;28;20040;-61
2022/07/04 08:31:18;;;;;;;17.67;9.13;;;;;;;;;;5063664;28;20047;-64
2022/07/04 08:33:47;;;;;;;16.75;9.45;;;;;;;;;;5070799;28;20049;-60
2022/07/04 08:36:13;;;;;;;11.98;8.60;;;;;;;;;;5071504;28;20415;-63
2022/07/04 08:38:39;;;;;;;14.82;8.95;;;;;;;;;;5071225;28;20033;-62
2022/07/04 08:41:05;;;;;;;18.17;8.85;;;;;;;;;;5071475;28;20075;-62
2022/07/04 08:43:36;;;;;;;19.45;9.10;;;;;;;;;;5070897;28;20025;-61
2022/07/04 08:46:06;;;;;;;11.88;8.73;;;;;;;;;;5071278;28;20070;-60
2022/07/04 08:48:33;;;;;;;13.23;8.93;;;;;;;;;;5071258;28;20087;-61
2022/07/04 08:51:10;;;;;;;12.20;8.57;;;;;;;;;;5070789;28;20063;-60
2022/07/04 08:53:39;;;;;;;20.38;9.55;;;;;;;;;;5071091;28;20028;-61
2022/07/04 08:58:50;;;;;;;11.40;8.43;;;;;;;;;;5070072;28;20055;-62
2022/07/04 09:01:17;;;;;;;14.07;9.15;;;;;;;;;;5070179;28;20043;-70
2022/07/04 09:03:44;;;;;;;13.38;8.77;;;;;;;;;;5070555;28;20025;-70
2022/07/04 09:06:11;;;;;;;16.73;9.52;;;;;;;;;;5070915;28;20025;-62
2022/07/04 09:08:37;;;;;;;17.13;9.20;;;;;;;;;;5070771;28;20362;-67
2022/07/04 09:11:04;;;;;;;15.93;9.13;;;;;;;;;;5070817;28;20033;-73
2022/07/04 09:13:31;;;;;;;17.38;9.93;;;;;;;;;;5070741;28;20483;-61
2022/07/04 09:15:57;;;;;;;22.05;10.10;;;;;;;;;;5070527;28;20029;-62
2022/07/04 09:18:23;;;;;;;20.55;10.32;;;;;;;;;;5070606;28;20032;-61
2022/07/04 09:20:49;;;;;;;14.48;8.85;;;;;;;;;;5070548;28;20481;-63
2022/07/04 09:23:20;;;;;;;15.25;8.55;;;;;;;;;;5070454;28;20036;-61
2022/07/04 09:25:46;;;;;;;23.98;9.70;;;;;;;;;;5070455;28;20023;-60
2022/07/04 09:28:26;;;;;;;72.18;13.43;;;;;;;;;;5070289;28;20053;-60
2022/07/04 09:30:52;;;;;;;79.85;13.60;;;;;;;;;;5070472;28;20035;-70
2022/07/04 09:33:18;;;;;;;32.55;10.95;;;;;;;;;;5070391;28;20029;-64
2022/07/04 09:35:44;;;;;;;82.03;15.25;;;;;;;;;;5070596;28;20021;-64
2022/07/04 09:38:14;;;;;;;31.40;9.50;;;;;;;;;;5067634;28;20027;-62
2022/07/04 09:43:26;;;;;;;24.13;9.50;;;;;;;;;;5071088;28;20090;-61
2022/07/04 09:46:01;;;;;;;11.07;8.05;;;;;;;;;;5070978;28;20046;-61
2022/07/04 09:48:27;;;;;;;24.27;8.63;;;;;;;;;;5070874;28;20020;-61
2022/07/04 09:50:53;;;;;;;14.65;7.55;;;;;;;;;;5070728;28;20155;-60
2022/07/04 09:53:19;;;;;;;14.13;7.28;;;;;;;;;;5070436;28;20028;-71
2022/07/04 09:55:46;;;;;;;17.40;6.97;;;;;;;;;;5070690;28;20040;-61
2022/07/04 09:58:13;;;;;;;17.50;8.00;;;;;;;;;;5070486;28;20021;-68
2022/07/04 10:00:40;;;;;;;26.05;8.07;;;;;;;;;;5070546;28;20448;-60
2022/07/04 10:03:15;;;;;;;15.85;7.60;;;;;;;;;;5070551;28;20024;-61
2022/07/04 10:05:41;;;;;;;14.27;7.10;;;;;;;;;;5070512;28;20111;-68
2022/07/04 10:08:08;;;;;;;12.27;7.50;;;;;;;;;;5072204;28;20384;-61
2022/07/04 10:10:37;;;;;;;12.02;6.65;;;;;;;;;;5074162;28;20094;-73
2022/07/04 10:13:05;;;;;;;12.65;7.25;;;;;;;;;;5074112;28;20028;-60
2022/07/04 10:15:31;;;;;;;15.48;7.30;;;;;;;;;;5073943;28;20103;-69
2022/07/04 10:17:58;;;;;;;10.93;6.55;;;;;;;;;;5074080;28;20464;-61
2022/07/04 10:20:24;;;;;;;11.98;6.43;;;;;;;;;;5074244;28;20102;-59
2022/07/04 10:22:50;;;;;;;14.80;6.70;;;;;;;;;;5074358;28;20113;-60
2022/07/04 10:25:16;;;;;;;11.73;6.35;;;;;;;;;;5074054;28;20042;-73
2022/07/04 10:27:42;;;;;;;14.65;6.95;;;;;;;;;;5073812;28;20041;-59
2022/07/04 10:30:11;;;;;;;18.55;6.80;;;;;;;;;;5073558;28;20086;-59
2022/07/04 10:32:38;;;;;;;22.13;7.65;;;;;;;;;;5073517;28;20043;-59
2022/07/04 10:35:04;;;;;;;13.52;6.97;;;;;;;;;;5073981;28;20051;-61
2022/07/04 10:37:49;;;;;;;10.80;6.35;;;;;;;;;;5073488;28;20033;-64
2022/07/04 10:40:35;;;;;;;11.88;7.18;;;;;;;;;;5073472;28;20043;-73
2022/07/04 10:43:01;;;;;;;18.92;7.38;;;;;;;;;;5073378;28;20064;-60
2022/07/04 10:45:34;;;;;;;16.90;7.70;;;;;;;;;;5073665;28;20329;-60
2022/07/04 10:48:00;;;;;;;25.83;8.15;;;;;;;;;;5073633;28;20074;-59
2022/07/04 10:50:29;;;;;;;30.90;8.82;;;;;;;;;;5073621;28;20029;-63
2022/07/04 10:53:11;;;;;;;17.25;7.30;;;;;;;;;;5073665;28;20056;-73
2022/07/04 10:55:37;;;;;;;22.15;7.82;;;;;;;;;;5073745;28;20029;-60
2022/07/04 10:58:03;;;;;;;22.25;7.18;;;;;;;;;;5054857;28;20392;-62
2022/07/04 11:00:29;;;;;;;13.90;7.03;;;;;;;;;;5073426;28;20424;-60
2022/07/04 11:03:15;;;;;;;12.60;6.70;;;;;;;;;;5073191;28;20091;-60
2022/07/04 11:05:41;;;;;;;11.32;6.75;;;;;;;;;;5073493;28;20047;-74
2022/07/04 11:08:07;;;;;;;12.70;7.22;;;;;;;;;;5073107;28;20060;-61
2022/07/04 11:10:38;;;;;;;12.70;6.68;;;;;;;;;;5073354;28;20040;-66
2022/07/04 11:13:07;;;;;;;14.13;7.68;;;;;;;;;;5073335;28;20021;-67
2022/07/04 11:15:33;;;;;;;15.23;7.80;;;;;;;;;;5073072;28;20025;-61
2022/07/04 11:18:03;;;;;;;16.17;7.82;;;;;;;;;;5073108;28;20055;-64
2022/07/04 11:20:30;;;;;;;13.57;7.15;;;;;;;;;;5071946;28;20103;-60
2022/07/04 11:23:10;;;;;;;15.55;6.90;;;;;;;;;;5072914;28;20396;-64
2022/07/04 11:25:36;;;;;;;17.33;7.30;;;;;;;;;;5072100;28;20092;-68
2022/07/04 11:28:22;;;;;;;23.33;7.90;;;;;;;;;;5071926;28;20045;-68
2022/07/04 11:30:51;;;;;;;20.83;7.80;;;;;;;;;;5071674;28;20083;-62
2022/07/04 11:33:22;;;;;;;13.65;6.65;;;;;;;;;;5072167;28;20074;-62
2022/07/04 11:36:07;;;;;;;13.68;6.85;;;;;;;;;;5072333;28;20495;-62
2022/07/04 11:38:45;;;;;;;14.27;6.07;;;;;;;;;;5072664;28;20078;-61
2022/07/04 11:46:40;;;;;;;13.98;6.38;;;;;;;;;;5072932;28;20043;-61
2022/07/04 11:49:12;;;;;;;28.52;7.30;;;;;;;;;;5072560;28;20020;-62
2022/07/04 11:51:46;;;;;;;20.15;6.35;;;;;;;;;;5072652;28;20051;-70
2022/07/04 11:54:12;;;;;;;21.17;6.78;;;;;;;;;;5072322;28;20029;-61
2022/07/04 11:56:38;;;;;;;19.45;7.15;;;;;;;;;;5072170;28;20051;-64
2022/07/04 11:59:12;;;;;;;16.15;6.35;;;;;;;;;;5072284;28;20040;-66
2022/07/04 12:01:38;;;;;;;18.85;6.45;;;;;;;;;;5072227;28;20071;-62
2022/07/04 12:04:14;;;;;;;15.98;6.53;;;;;;;;;;5072007;28;20519;-62
2022/07/04 12:06:40;;;;;;;17.13;6.70;;;;;;;;;;5072092;28;20024;-72
2022/07/04 12:09:07;;;;;;;15.32;6.88;;;;;;;;;;5072152;28;20550;-70
2022/07/04 12:11:51;;;;;;;16.90;7.10;;;;;;;;;;5071885;28;20044;-61
2022/07/04 12:14:17;;;;;;;16.15;7.32;;;;;;;;;;5063593;28;20025;-62
2022/07/04 12:16:43;;;;;;;10.55;5.80;;;;;;;;;;5071852;28;20384;-72
2022/07/04 12:19:10;;;;;;;11.93;5.90;;;;;;;;;;5072132;28;20025;-72
2022/07/04 12:21:36;;;;;;;20.38;6.40;;;;;;;;;;5071670;28;20389;-62
2022/07/04 12:24:03;;;;;;;19.70;7.00;;;;;;;;;;5072155;28;20055;-70
2022/07/04 12:26:30;;;;;;;24.65;6.85;;;;;;;;;;5071836;28;20103;-62
2022/07/04 12:28:57;;;;;;;10.27;5.55;;;;;;;;;;5071528;28;20044;-67
2022/07/04 12:31:43;;;;;;;13.65;6.28;;;;;;;;;;5071221;28;20085;-70
2022/07/04 12:34:16;;;;;;;20.80;6.70;;;;;;;;;;5071377;28;20467;-70
2022/07/04 12:36:52;;;;;;;22.27;6.47;;;;;;;;;;5071732;28;20039;-77
2022/07/04 12:39:31;;;;;;;12.35;6.47;;;;;;;;;;5071576;28;20056;-65
2022/07/04 12:42:05;;;;;;;31.80;7.65;;;;;;;;;;5071506;28;20056;-63
2022/07/04 12:44:31;;;;;;;31.25;8.70;;;;;;;;;;5071564;28;20044;-66
2022/07/04 12:46:57;;;;;;;72.28;12.43;;;;;;;;;;5071502;28;20017;-66
2022/07/04 12:49:23;;;;;;;16.40;7.20;;;;;;;;;;5071684;28;20024;-63
2022/07/04 12:51:49;;;;;;;17.20;6.15;;;;;;;;;;5071561;28;20028;-62
2022/07/04 12:54:15;;;;;;;17.45;6.40;;;;;;;;;;5071271;28;20083;-66
2022/07/04 12:56:43;;;;;;;25.77;8.02;;;;;;;;;;5071445;28;20060;-63
2022/07/04 12:59:09;;;;;;;41.30;9.07;;;;;;;;;;5071434;28;20032;-63
2022/07/04 13:01:35;;;;;;;11.70;6.50;;;;;;;;;;5071195;28;20121;-74
2022/07/04 13:04:01;;;;;;;9.70;5.57;;;;;;;;;;5070936;28;20052;-66
2022/07/04 13:06:27;;;;;;;17.85;7.95;;;;;;;;;;5071099;28;20032;-69
2022/07/04 13:08:54;;;;;;;13.32;6.70;;;;;;;;;;5070696;28;20520;-63
2022/07/04 13:14:05;;;;;;;13.82;6.95;;;;;;;;;;5071213;28;20495;-64
2022/07/04 13:16:31;;;;;;;12.27;6.90;;;;;;;;;;5070808;28;20028;-70
2022/07/04 13:18:58;;;;;;;15.20;7.57;;;;;;;;;;5070899;28;20030;-71
2022/07/04 13:21:24;;;;;;;16.50;7.60;;;;;;;;;;5070999;28;20043;-69
2022/07/04 13:23:50;;;;;;;16.60;6.88;;;;;;;;;;5070985;28;20115;-69
2022/07/04 13:26:17;;;;;;;12.18;6.10;;;;;;;;;;5062238;28;20480;-70
2022/07/04 13:28:43;;;;;;;13.88;7.30;;;;;;;;;;5070117;28;20052;-70
2022/07/04 13:31:09;;;;;;;12.35;6.70;;;;;;;;;;5071161;28;20020;-69
2022/07/04 13:33:35;;;;;;;10.65;6.68;;;;;;;;;;5070668;28;20036;-69
2022/07/04 13:36:01;;;;;;;16.38;7.60;;;;;;;;;;5070932;28;20021;-68
2022/07/04 13:38:28;;;;;;;16.90;7.20;;;;;;;;;;5070650;28;20036;-69
2022/07/04 13:40:56;;;;;;;13.85;7.43;;;;;;;;;;5069998;28;20395;-67
2022/07/04 13:43:23;;;;;;;12.63;7.03;;;;;;;;;;5072582;28;20040;-67
2022/07/04 13:45:49;;;;;;;12.02;7.70;;;;;;;;;;5056812;28;20400;-62
2022/07/04 13:48:15;;;;;;;13.60;7.45;;;;;;;;;;5074825;28;20048;-69
2022/07/04 13:50:41;;;;;;;9.27;7.60;;;;;;;;;;5074856;28;20031;-65
2022/07/04 13:53:08;;;;;;;21.27;8.63;;;;;;;;;;5074459;28;20079;-67
2022/07/04 13:55:34;;;;;;;16.52;7.60;;;;;;;;;;5074785;28;20039;-66
2022/07/04 13:58:08;;;;;;;16.40;7.28;;;;;;;;;;5074015;28;20357;-62
2022/07/04 14:00:36;;;;;;;10.85;6.68;;;;;;;;;;5086717;28;20047;-68
2022/07/04 14:03:03;;;;;;;14.38;6.80;;;;;;;;;;5067922;28;20032;-71
2022/07/04 14:05:29;;;;;;;10.52;6.65;;;;;;;;;;5065993;28;20024;-66
2022/07/04 14:07:56;;;;;;;10.77;7.00;;;;;;;;;;5081741;28;20547;-69
2022/07/04 14:10:24;;;;;;;11.70;7.00;;;;;;;;;;5080057;28;20403;-68
2022/07/04 14:12:50;;;;;;;13.65;6.63;;;;;;;;;;5078141;28;20554;-68
2022/07/04 14:15:17;;;;;;;12.35;6.65;;;;;;;;;;5077973;28;20375;-73
2022/07/04 14:17:43;;;;;;;14.57;6.50;;;;;;;;;;5078174;28;20017;-68
2022/07/04 14:20:10;;;;;;;11.52;6.75;;;;;;;;;;5061074;28;20271;-70
2022/07/04 14:22:39;;;;;;;14.88;6.38;;;;;;;;;;5075947;28;20472;-68
2022/07/04 14:25:06;;;;;;;8.60;6.90;;;;;;;;;;5074066;28;20070;-70
2022/07/04 14:27:32;;;;;;;12.52;6.70;;;;;;;;;;5073403;28;20052;-69
2022/07/04 14:29:58;;;;;;;12.07;7.15;;;;;;;;;;5073950;28;20101;-63
2022/07/04 14:32:25;;;;;;;11.73;6.93;;;;;;;;;;5074186;28;20027;-64
2022/07/04 14:34:51;;;;;;;9.85;7.10;;;;;;;;;;5073882;28;20060;-68
2022/07/04 14:37:17;;;;;;;11.35;6.78;;;;;;;;;;5073904;28;20062;-64
2022/07/04 14:39:43;;;;;;;12.00;6.78;;;;;;;;;;5073601;28;20033;-70
2022/07/04 14:42:09;;;;;;;10.45;7.35;;;;;;;;;;5073445;28;20047;-67
2022/07/04 14:44:37;;;;;;;18.10;7.30;;;;;;;;;;5073773;28;20055;-65
2022/07/04 14:47:04;;;;;;;11.38;7.72;;;;;;;;;;5073588;28;20027;-68
2022/07/04 14:49:30;;;;;;;12.23;7.68;;;;;;;;;;5073518;28;20031;-67
2022/07/04 14:51:57;;;;;;;9.95;7.30;;;;;;;;;;5073360;28;20099;-66